sensor_id;sensor_type;location;lat;lon;timestamp;temperature;humidity
77803;DHT22;66993;48.256;16.422;2023-03-22T00:00:16;10.8;75.0
77803;DHT22;66993;48.256;16.422;2023-03-22T00:05:15;10.9;75.0
77803;DHT22;66993;48.256;16.422;2023-03-22T00:10:16;10.7;76.0
77803;DHT22;66993;48.256;16.422;2023-03-22T00:15:16;11.0;76.0
77803;DHT22;66993;48.256;16.422;2023-03-22T00:20:16;11.0;76.0
77803;DHT22;66993;48.256;16.422;2023-03-22T00:25:16;11.0;76.0
77803;DHT22;66993;48.256;16.422;2023-03-22T00:30:16;10.7;76.0
77803;DHT22;66993;48.256;16.422;2023-03-22T00:35:16;10.7;76.0
77803;DHT22;66993;48.256;16.422;2023-03-22T00:40:16;10.8;76.0
77803;DHT22;66993;48.256;16.422;2023-03-22T00:45:15;10.7;76.0
77803;DHT22;66993;48.256;16.422;2023-03-22T00:50:16;10.7;76.0
77803;DHT22;66993;48.256;16.422;2023-03-22T00:55:16;10.7;76.0
77803;DHT22;66993;48.256;16.422;2023-03-22T01:00:16;10.7;76.0
77803;DHT22;66993;48.256;16.422;2023-03-22T01:05:16;10.6;76.0
77803;DHT22;66993;48.256;16.422;2023-03-22T01:10:16;10.5;76.0
77803;DHT22;66993;48.256;16.422;2023-03-22T01:15:16;10.5;76.0
77803;DHT22;66993;48.256;16.422;2023-03-22T01:20:16;10.5;76.0
77803;DHT22;66993;48.256;16.422;2023-03-22T01:25:16;10.4;76.0
77803;DHT22;66993;48.256;16.422;2023-03-22T01:30:16;10.5;76.0
77803;DHT22;66993;48.256;16.422;2023-03-22T01:35:16;10.4;77.0
77803;DHT22;66993;48.256;16.422;2023-03-22T01:40:16;10.4;76.0
77803;DHT22;66993;48.256;16.422;2023-03-22T01:45:31;10.5;77.0
77803;DHT22;66993;48.256;16.422;2023-03-22T01:50:16;10.5;77.0
77803;DHT22;66993;48.256;16.422;2023-03-22T01:55:16;10.5;77.0
77803;DHT22;66993;48.256;16.422;2023-03-22T02:00:16;10.4;77.0
77803;DHT22;66993;48.256;16.422;2023-03-22T02:05:16;10.4;77.0
77803;DHT22;66993;48.256;16.422;2023-03-22T02:10:17;10.3;77.0
77803;DHT22;66993;48.256;16.422;2023-03-22T02:15:16;10.4;77.0
77803;DHT22;66993;48.256;16.422;2023-03-22T02:20:24;10.3;77.0
77803;DHT22;66993;48.256;16.422;2023-03-22T02:25:25;10.3;77.0
77803;DHT22;66993;48.256;16.422;2023-03-22T02:30:21;10.4;77.0
77803;DHT22;66993;48.256;16.422;2023-03-22T02:35:37;10.4;77.0
77803;DHT22;66993;48.256;16.422;2023-03-22T02:40:16;10.4;77.0
77803;DHT22;66993;48.256;16.422;2023-03-22T02:45:16;10.8;77.0
77803;DHT22;66993;48.256;16.422;2023-03-22T02:50:18;10.8;77.0
77803;DHT22;66993;48.256;16.422;2023-03-22T02:55:16;10.9;77.0
77803;DHT22;66993;48.256;16.422;2023-03-22T03:00:16;10.9;77.0
77803;DHT22;66993;48.256;16.422;2023-03-22T03:05:16;11.1;77.0
77803;DHT22;66993;48.256;16.422;2023-03-22T03:10:16;11.1;77.0
77803;DHT22;66993;48.256;16.422;2023-03-22T03:15:17;10.9;77.0
77803;DHT22;66993;48.256;16.422;2023-03-22T03:20:20;10.8;77.0
77803;DHT22;66993;48.256;16.422;2023-03-22T03:25:17;10.8;77.0
77803;DHT22;66993;48.256;16.422;2023-03-22T03:30:17;10.4;77.0
77803;DHT22;66993;48.256;16.422;2023-03-22T03:35:18;10.3;77.0
77803;DHT22;66993;48.256;16.422;2023-03-22T03:40:16;10.3;77.0
77803;DHT22;66993;48.256;16.422;2023-03-22T03:45:16;10.2;77.0
77803;DHT22;66993;48.256;16.422;2023-03-22T03:50:15;10.3;77.0
77803;DHT22;66993;48.256;16.422;2023-03-22T03:55:15;10.3;77.0
77803;DHT22;66993;48.256;16.422;2023-03-22T04:00:16;10.2;77.0
77803;DHT22;66993;48.256;16.422;2023-03-22T04:05:16;10.2;77.0
77803;DHT22;66993;48.256;16.422;2023-03-22T04:10:16;10.1;78.0
77803;DHT22;66993;48.256;16.422;2023-03-22T04:15:16;10.1;78.0
77803;DHT22;66993;48.256;16.422;2023-03-22T04:20:16;10.1;78.0
77803;DHT22;66993;48.256;16.422;2023-03-22T04:25:16;10.0;78.0
77803;DHT22;66993;48.256;16.422;2023-03-22T04:30:16;10.1;78.0
77803;DHT22;66993;48.256;16.422;2023-03-22T04:35:16;10.1;78.0
77803;DHT22;66993;48.256;16.422;2023-03-22T04:40:16;10.1;78.0
77803;DHT22;66993;48.256;16.422;2023-03-22T04:45:15;10.1;78.0
77803;DHT22;66993;48.256;16.422;2023-03-22T04:50:16;9.9;78.0
77803;DHT22;66993;48.256;16.422;2023-03-22T04:55:16;9.9;78.0
77803;DHT22;66993;48.256;16.422;2023-03-22T05:00:16;9.8;79.0
77803;DHT22;66993;48.256;16.422;2023-03-22T05:05:16;9.6;79.0
77803;DHT22;66993;48.256;16.422;2023-03-22T05:10:16;9.5;80.0
77803;DHT22;66993;48.256;16.422;2023-03-22T05:15:16;9.4;80.0
77803;DHT22;66993;48.256;16.422;2023-03-22T05:20:16;9.4;80.0
77803;DHT22;66993;48.256;16.422;2023-03-22T05:25:16;9.2;80.0
77803;DHT22;66993;48.256;16.422;2023-03-22T05:30:15;9.2;80.0
77803;DHT22;66993;48.256;16.422;2023-03-22T05:35:16;9.4;80.0
77803;DHT22;66993;48.256;16.422;2023-03-22T05:40:16;9.5;80.0
77803;DHT22;66993;48.256;16.422;2023-03-22T05:45:16;9.7;81.0
77803;DHT22;66993;48.256;16.422;2023-03-22T05:50:16;10.0;81.0
77803;DHT22;66993;48.256;16.422;2023-03-22T05:55:16;10.2;80.0
77803;DHT22;66993;48.256;16.422;2023-03-22T06:00:16;10.3;80.0
77803;DHT22;66993;48.256;16.422;2023-03-22T06:05:16;10.5;80.0
77803;DHT22;66993;48.256;16.422;2023-03-22T06:10:15;10.7;80.0
77803;DHT22;66993;48.256;16.422;2023-03-22T06:15:16;10.9;79.0
77803;DHT22;66993;48.256;16.422;2023-03-22T06:20:16;11.2;79.0
77803;DHT22;66993;48.256;16.422;2023-03-22T06:25:16;11.4;77.0
77803;DHT22;66993;48.256;16.422;2023-03-22T06:30:15;11.5;76.0
77803;DHT22;66993;48.256;16.422;2023-03-22T06:35:16;11.6;76.0
77803;DHT22;66993;48.256;16.422;2023-03-22T06:40:16;11.6;76.0
77803;DHT22;66993;48.256;16.422;2023-03-22T06:45:15;11.7;75.0
77803;DHT22;66993;48.256;16.422;2023-03-22T06:50:16;12.0;75.0
77803;DHT22;66993;48.256;16.422;2023-03-22T06:55:15;12.3;75.0
77803;DHT22;66993;48.256;16.422;2023-03-22T07:00:16;12.6;75.0
77803;DHT22;66993;48.256;16.422;2023-03-22T07:05:16;12.7;75.0
77803;DHT22;66993;48.256;16.422;2023-03-22T07:10:15;13.0;74.0
77803;DHT22;66993;48.256;16.422;2023-03-22T07:15:16;13.3;74.0
77803;DHT22;66993;48.256;16.422;2023-03-22T07:20:16;13.5;73.0
77803;DHT22;66993;48.256;16.422;2023-03-22T07:25:16;14.0;72.0
77803;DHT22;66993;48.256;16.422;2023-03-22T07:30:16;13.8;71.0
77803;DHT22;66993;48.256;16.422;2023-03-22T07:35:16;14.0;72.0
77803;DHT22;66993;48.256;16.422;2023-03-22T07:40:16;14.0;71.0
77803;DHT22;66993;48.256;16.422;2023-03-22T07:45:16;14.4;71.0
77803;DHT22;66993;48.256;16.422;2023-03-22T07:50:16;14.6;71.0
77803;DHT22;66993;48.256;16.422;2023-03-22T07:55:16;15.6;69.0
77803;DHT22;66993;48.256;16.422;2023-03-22T08:00:16;14.9;68.0
77803;DHT22;66993;48.256;16.422;2023-03-22T08:05:16;15.9;66.0
77803;DHT22;66993;48.256;16.422;2023-03-22T08:10:15;16.6;66.0
77803;DHT22;66993;48.256;16.422;2023-03-22T08:15:16;17.1;64.0
77803;DHT22;66993;48.256;16.422;2023-03-22T08:20:16;17.0;64.0
77803;DHT22;66993;48.256;16.422;2023-03-22T08:25:15;17.4;63.0
77803;DHT22;66993;48.256;16.422;2023-03-22T08:30:15;17.4;63.0
77803;DHT22;66993;48.256;16.422;2023-03-22T08:35:16;16.9;63.0
77803;DHT22;66993;48.256;16.422;2023-03-22T08:40:15;17.9;62.0
77803;DHT22;66993;48.256;16.422;2023-03-22T08:45:15;17.4;62.0
77803;DHT22;66993;48.256;16.422;2023-03-22T08:50:16;17.8;62.0
77803;DHT22;66993;48.256;16.422;2023-03-22T08:55:16;17.3;62.0
77803;DHT22;66993;48.256;16.422;2023-03-22T09:00:16;17.3;61.0
77803;DHT22;66993;48.256;16.422;2023-03-22T09:05:16;16.8;60.0
77803;DHT22;66993;48.256;16.422;2023-03-22T09:10:16;17.8;61.0
77803;DHT22;66993;48.256;16.422;2023-03-22T09:15:15;17.3;60.0
77803;DHT22;66993;48.256;16.422;2023-03-22T09:20:16;18.1;61.0
77803;DHT22;66993;48.256;16.422;2023-03-22T09:25:16;17.8;61.0
77803;DHT22;66993;48.256;16.422;2023-03-22T09:30:15;18.3;61.0
77803;DHT22;66993;48.256;16.422;2023-03-22T09:35:16;18.5;61.0
77803;DHT22;66993;48.256;16.422;2023-03-22T09:40:15;18.5;60.0
77803;DHT22;66993;48.256;16.422;2023-03-22T09:45:17;19.0;60.0
77803;DHT22;66993;48.256;16.422;2023-03-22T09:50:17;18.5;60.0
77803;DHT22;66993;48.256;16.422;2023-03-22T09:55:17;19.0;59.0
77803;DHT22;66993;48.256;16.422;2023-03-22T10:00:17;20.0;59.0
77803;DHT22;66993;48.256;16.422;2023-03-22T10:05:17;20.5;59.0
77803;DHT22;66993;48.256;16.422;2023-03-22T10:10:16;20.0;59.0
77803;DHT22;66993;48.256;16.422;2023-03-22T10:15:16;20.0;59.0
77803;DHT22;66993;48.256;16.422;2023-03-22T10:20:20;21.0;58.0
77803;DHT22;66993;48.256;16.422;2023-03-22T10:25:16;20.0;57.0
77803;DHT22;66993;48.256;16.422;2023-03-22T10:30:18;19.0;57.0
77803;DHT22;66993;48.256;16.422;2023-03-22T10:35:16;19.5;56.0
77803;DHT22;66993;48.256;16.422;2023-03-22T10:40:17;20.0;55.0
77803;DHT22;66993;48.256;16.422;2023-03-22T10:45:15;20.5;55.0
77803;DHT22;66993;48.256;16.422;2023-03-22T10:50:17;19.5;53.0
77803;DHT22;66993;48.256;16.422;2023-03-22T10:55:16;21.5;53.0
77803;DHT22;66993;48.256;16.422;2023-03-22T11:00:16;22.0;53.0
77803;DHT22;66993;48.256;16.422;2023-03-22T11:05:20;22.0;52.0
77803;DHT22;66993;48.256;16.422;2023-03-22T11:10:20;21.5;51.0
77803;DHT22;66993;48.256;16.422;2023-03-22T11:15:18;22.0;46.0
77803;DHT22;66993;48.256;16.422;2023-03-22T11:20:16;23.0;43.0
77803;DHT22;66993;48.256;16.422;2023-03-22T11:25:17;20.5;39.0
77803;DHT22;66993;48.256;16.422;2023-03-22T11:30:17;21.0;34.0
77803;DHT22;66993;48.256;16.422;2023-03-22T11:35:16;22.5;32.0
77803;DHT22;66993;48.256;16.422;2023-03-22T11:40:16;20.5;25.0
77803;DHT22;66993;48.256;16.422;2023-03-22T11:45:17;21.5;27.0
77803;DHT22;66993;48.256;16.422;2023-03-22T11:50:22;21.5;25.0
77803;DHT22;66993;48.256;16.422;2023-03-22T11:55:15;22.0;27.0
77803;DHT22;66993;48.256;16.422;2023-03-22T12:00:17;21.0;31.0
77803;DHT22;66993;48.256;16.422;2023-03-22T12:05:17;21.0;32.0
77803;DHT22;66993;48.256;16.422;2023-03-22T12:10:17;23.0;35.0
77803;DHT22;66993;48.256;16.422;2023-03-22T12:15:16;23.0;36.0
77803;DHT22;66993;48.256;16.422;2023-03-22T12:20:18;23.5;36.0
77803;DHT22;66993;48.256;16.422;2023-03-22T12:25:16;23.5;37.0
77803;DHT22;66993;48.256;16.422;2023-03-22T12:30:17;23.9;37.0
77803;DHT22;66993;48.256;16.422;2023-03-22T12:35:17;22.9;37.0
77803;DHT22;66993;48.256;16.422;2023-03-22T12:40:19;22.9;37.0
77803;DHT22;66993;48.256;16.422;2023-03-22T12:45:17;22.4;37.0
77803;DHT22;66993;48.256;16.422;2023-03-22T12:50:16;23.9;38.0
77803;DHT22;66993;48.256;16.422;2023-03-22T12:55:17;23.9;38.0
77803;DHT22;66993;48.256;16.422;2023-03-22T13:00:16;23.4;37.0
77803;DHT22;66993;48.256;16.422;2023-03-22T13:05:15;23.4;38.0
77803;DHT22;66993;48.256;16.422;2023-03-22T13:10:39;23.9;37.0
77803;DHT22;66993;48.256;16.422;2023-03-22T13:15:27;24.9;38.0
77803;DHT22;66993;48.256;16.422;2023-03-22T13:20:20;24.9;37.0
77803;DHT22;66993;48.256;16.422;2023-03-22T13:25:26;23.9;37.0
77803;DHT22;66993;48.256;16.422;2023-03-22T13:30:20;24.9;37.0
77803;DHT22;66993;48.256;16.422;2023-03-22T13:35:18;26.9;36.0
77803;DHT22;66993;48.256;16.422;2023-03-22T13:40:21;23.9;37.0
77803;DHT22;66993;48.256;16.422;2023-03-22T13:45:26;24.4;37.0
77803;DHT22;66993;48.256;16.422;2023-03-22T13:50:16;23.4;37.0
77803;DHT22;66993;48.256;16.422;2023-03-22T13:55:34;23.4;37.0
77803;DHT22;66993;48.256;16.422;2023-03-22T14:00:18;22.9;37.0
77803;DHT22;66993;48.256;16.422;2023-03-22T14:05:17;22.4;37.0
77803;DHT22;66993;48.256;16.422;2023-03-22T14:10:16;22.4;37.0
77803;DHT22;66993;48.256;16.422;2023-03-22T14:15:16;21.9;39.0
77803;DHT22;66993;48.256;16.422;2023-03-22T14:20:16;21.8;40.0
77803;DHT22;66993;48.256;16.422;2023-03-22T14:25:17;21.3;41.0
77803;DHT22;66993;48.256;16.422;2023-03-22T14:30:25;21.1;41.0
77803;DHT22;66993;48.256;16.422;2023-03-22T14:35:18;20.6;41.0
77803;DHT22;66993;48.256;16.422;2023-03-22T14:40:23;21.1;41.0
77803;DHT22;66993;48.256;16.422;2023-03-22T14:45:16;21.3;42.0
77803;DHT22;66993;48.256;16.422;2023-03-22T14:50:16;21.4;42.0
77803;DHT22;66993;48.256;16.422;2023-03-22T14:55:16;21.5;43.0
77803;DHT22;66993;48.256;16.422;2023-03-22T15:00:16;21.8;43.0
77803;DHT22;66993;48.256;16.422;2023-03-22T15:05:16;22.3;43.0
77803;DHT22;66993;48.256;16.422;2023-03-22T15:10:17;22.3;43.0
77803;DHT22;66993;48.256;16.422;2023-03-22T15:15:16;22.7;43.0
77803;DHT22;66993;48.256;16.422;2023-03-22T15:20:17;22.6;43.0
77803;DHT22;66993;48.256;16.422;2023-03-22T15:25:16;22.6;43.0
77803;DHT22;66993;48.256;16.422;2023-03-22T15:30:17;23.1;43.0
77803;DHT22;66993;48.256;16.422;2023-03-22T15:35:16;22.6;43.0
77803;DHT22;66993;48.256;16.422;2023-03-22T15:40:35;22.3;43.0
77803;DHT22;66993;48.256;16.422;2023-03-22T15:45:17;22.2;43.0
77803;DHT22;66993;48.256;16.422;2023-03-22T15:50:16;21.7;43.0
77803;DHT22;66993;48.256;16.422;2023-03-22T15:55:16;21.9;43.0
77803;DHT22;66993;48.256;16.422;2023-03-22T16:00:19;22.0;43.0
77803;DHT22;66993;48.256;16.422;2023-03-22T16:05:16;21.2;43.0
77803;DHT22;66993;48.256;16.422;2023-03-22T16:10:16;21.3;44.0
77803;DHT22;66993;48.256;16.422;2023-03-22T16:15:16;20.8;44.0
77803;DHT22;66993;48.256;16.422;2023-03-22T16:20:16;20.9;45.0
77803;DHT22;66993;48.256;16.422;2023-03-22T16:25:17;20.5;45.0
77803;DHT22;66993;48.256;16.422;2023-03-22T16:30:16;20.1;46.0
77803;DHT22;66993;48.256;16.422;2023-03-22T16:35:17;19.7;46.0
77803;DHT22;66993;48.256;16.422;2023-03-22T16:40:16;19.3;46.0
77803;DHT22;66993;48.256;16.422;2023-03-22T16:45:18;18.9;47.0
77803;DHT22;66993;48.256;16.422;2023-03-22T16:50:16;18.7;47.0
77803;DHT22;66993;48.256;16.422;2023-03-22T16:55:17;18.5;47.0
77803;DHT22;66993;48.256;16.422;2023-03-22T17:00:16;18.2;48.0
77803;DHT22;66993;48.256;16.422;2023-03-22T17:05:16;18.1;49.0
77803;DHT22;66993;48.256;16.422;2023-03-22T17:10:15;17.8;49.0
77803;DHT22;66993;48.256;16.422;2023-03-22T17:15:25;17.7;50.0
77803;DHT22;66993;48.256;16.422;2023-03-22T17:20:16;17.5;50.0
77803;DHT22;66993;48.256;16.422;2023-03-22T17:25:16;17.3;51.0
77803;DHT22;66993;48.256;16.422;2023-03-22T17:30:16;17.1;51.0
77803;DHT22;66993;48.256;16.422;2023-03-22T17:35:16;17.0;53.0
77803;DHT22;66993;48.256;16.422;2023-03-22T17:40:15;16.6;53.0
77803;DHT22;66993;48.256;16.422;2023-03-22T17:45:17;16.6;53.0
77803;DHT22;66993;48.256;16.422;2023-03-22T17:50:16;16.6;54.0
77803;DHT22;66993;48.256;16.422;2023-03-22T17:55:16;16.3;54.0
77803;DHT22;66993;48.256;16.422;2023-03-22T18:00:16;16.3;55.0
77803;DHT22;66993;48.256;16.422;2023-03-22T18:05:17;16.2;55.0
77803;DHT22;66993;48.256;16.422;2023-03-22T18:10:16;16.1;56.0
77803;DHT22;66993;48.256;16.422;2023-03-22T18:15:16;15.9;57.0
77803;DHT22;66993;48.256;16.422;2023-03-22T18:20:17;15.7;57.0
77803;DHT22;66993;48.256;16.422;2023-03-22T18:25:16;15.7;57.0
77803;DHT22;66993;48.256;16.422;2023-03-22T18:30:16;15.7;57.0
77803;DHT22;66993;48.256;16.422;2023-03-22T18:35:16;15.6;58.0
77803;DHT22;66993;48.256;16.422;2023-03-22T18:40:16;15.6;58.0
77803;DHT22;66993;48.256;16.422;2023-03-22T18:45:16;15.3;58.0
77803;DHT22;66993;48.256;16.422;2023-03-22T18:50:15;15.4;60.0
77803;DHT22;66993;48.256;16.422;2023-03-22T18:55:16;15.3;60.0
77803;DHT22;66993;48.256;16.422;2023-03-22T19:00:16;15.3;60.0
77803;DHT22;66993;48.256;16.422;2023-03-22T19:05:16;15.3;60.0
77803;DHT22;66993;48.256;16.422;2023-03-22T19:10:15;15.3;60.0
77803;DHT22;66993;48.256;16.422;2023-03-22T19:15:16;15.4;61.0
77803;DHT22;66993;48.256;16.422;2023-03-22T19:20:16;15.2;60.0
77803;DHT22;66993;48.256;16.422;2023-03-22T19:25:16;15.0;60.0
77803;DHT22;66993;48.256;16.422;2023-03-22T19:30:15;14.9;60.0
77803;DHT22;66993;48.256;16.422;2023-03-22T19:35:16;15.0;60.0
77803;DHT22;66993;48.256;16.422;2023-03-22T19:40:16;14.7;60.0
77803;DHT22;66993;48.256;16.422;2023-03-22T19:45:15;14.6;60.0
77803;DHT22;66993;48.256;16.422;2023-03-22T19:50:15;14.6;61.0
77803;DHT22;66993;48.256;16.422;2023-03-22T19:55:16;14.5;61.0
77803;DHT22;66993;48.256;16.422;2023-03-22T20:00:16;14.0;61.0
77803;DHT22;66993;48.256;16.422;2023-03-22T20:05:16;14.1;61.0
77803;DHT22;66993;48.256;16.422;2023-03-22T20:10:16;13.8;61.0
77803;DHT22;66993;48.256;16.422;2023-03-22T20:15:15;13.9;62.0
77803;DHT22;66993;48.256;16.422;2023-03-22T20:20:16;13.7;62.0
77803;DHT22;66993;48.256;16.422;2023-03-22T20:25:16;13.5;64.0
77803;DHT22;66993;48.256;16.422;2023-03-22T20:30:16;13.6;64.0
77803;DHT22;66993;48.256;16.422;2023-03-22T20:35:16;13.4;64.0
77803;DHT22;66993;48.256;16.422;2023-03-22T20:40:16;13.5;65.0
77803;DHT22;66993;48.256;16.422;2023-03-22T20:45:15;13.3;65.0
77803;DHT22;66993;48.256;16.422;2023-03-22T20:50:16;13.1;65.0
77803;DHT22;66993;48.256;16.422;2023-03-22T20:55:15;13.0;65.0
77803;DHT22;66993;48.256;16.422;2023-03-22T21:00:16;13.0;65.0
77803;DHT22;66993;48.256;16.422;2023-03-22T21:05:16;12.7;66.0
77803;DHT22;66993;48.256;16.422;2023-03-22T21:10:16;12.8;66.0
77803;DHT22;66993;48.256;16.422;2023-03-22T21:15:15;12.7;66.0
77803;DHT22;66993;48.256;16.422;2023-03-22T21:20:15;13.0;67.0
77803;DHT22;66993;48.256;16.422;2023-03-22T21:25:16;12.9;67.0
77803;DHT22;66993;48.256;16.422;2023-03-22T21:30:15;12.1;67.0
77803;DHT22;66993;48.256;16.422;2023-03-22T21:35:16;12.4;67.0
77803;DHT22;66993;48.256;16.422;2023-03-22T21:40:15;12.3;68.0
77803;DHT22;66993;48.256;16.422;2023-03-22T21:45:15;12.0;68.0
77803;DHT22;66993;48.256;16.422;2023-03-22T21:50:16;12.0;69.0
77803;DHT22;66993;48.256;16.422;2023-03-22T21:55:15;11.5;69.0
77803;DHT22;66993;48.256;16.422;2023-03-22T22:00:16;11.4;69.0
77803;DHT22;66993;48.256;16.422;2023-03-22T22:05:16;11.1;69.0
77803;DHT22;66993;48.256;16.422;2023-03-22T22:10:15;11.0;71.0
77803;DHT22;66993;48.256;16.422;2023-03-22T22:15:16;10.5;71.0
77803;DHT22;66993;48.256;16.422;2023-03-22T22:20:16;10.7;71.0
77803;DHT22;66993;48.256;16.422;2023-03-22T22:25:16;10.6;72.0
77803;DHT22;66993;48.256;16.422;2023-03-22T22:30:16;10.7;72.0
77803;DHT22;66993;48.256;16.422;2023-03-22T22:35:16;10.2;72.0
77803;DHT22;66993;48.256;16.422;2023-03-22T22:40:15;10.3;73.0
77803;DHT22;66993;48.256;16.422;2023-03-22T22:45:15;10.0;73.0
77803;DHT22;66993;48.256;16.422;2023-03-22T22:50:16;9.5;74.0
77803;DHT22;66993;48.256;16.422;2023-03-22T22:55:15;9.1;74.0
77803;DHT22;66993;48.256;16.422;2023-03-22T23:00:16;9.2;74.0
77803;DHT22;66993;48.256;16.422;2023-03-22T23:05:15;8.7;74.0
77803;DHT22;66993;48.256;16.422;2023-03-22T23:10:15;8.6;75.0
77803;DHT22;66993;48.256;16.422;2023-03-22T23:15:16;8.6;75.0
77803;DHT22;66993;48.256;16.422;2023-03-22T23:20:16;8.5;75.0
77803;DHT22;66993;48.256;16.422;2023-03-22T23:25:16;8.9;76.0
77803;DHT22;66993;48.256;16.422;2023-03-22T23:30:15;8.3;76.0
77803;DHT22;66993;48.256;16.422;2023-03-22T23:35:16;7.8;77.0
77803;DHT22;66993;48.256;16.422;2023-03-22T23:40:16;7.7;77.0
77803;DHT22;66993;48.256;16.422;2023-03-22T23:45:15;7.7;77.0
77803;DHT22;66993;48.256;16.422;2023-03-22T23:50:15;7.9;78.0
77803;DHT22;66993;48.256;16.422;2023-03-22T23:55:15;7.9;78.0
